Time;durP1;ratioP1;P1;durP2;ratioP2;P2;SDS_P1;SDS_P2;PMS_P1;PMS_P2;Temp;Humidity;BMP_temperature;BMP_pressure;BME280_temperature;BME280_humidity;BME280_pressure;Samples;Min_cycle;Max_cycle;Signal;HPM_P1;HPM_P2
2021/05/18 00:00:51;;;;;;;2.58;1.27;;;;;;;9.85;100.00;98503.00;5078040;28;45256;-86
2021/05/18 00:03:18;;;;;;;2.90;1.50;;;;;;;9.81;100.00;98498.97;5077336;27;45220;-86
2021/05/18 00:05:52;;;;;;;2.47;1.30;;;;;;;9.66;100.00;98501.25;5078877;28;47490;-88
2021/05/18 00:08:21;;;;;;;2.08;1.17;;;;;;;9.87;100.00;98505.53;5084713;27;45458;-88
2021/05/18 00:13:38;;;;;;;1.95;0.98;;;;;;;9.78;100.00;98501.91;5084551;28;46152;-90
2021/05/18 00:16:05;;;;;;;2.53;1.35;;;;;;;9.81;100.00;98501.63;5084599;27;45364;-89
2021/05/18 00:18:32;;;;;;;2.63;1.48;;;;;;;9.90;100.00;98503.41;5084491;27;45354;-90
2021/05/18 00:20:58;;;;;;;2.35;1.13;;;;;;;9.80;100.00;98494.63;5085371;27;45346;-92
2021/05/18 00:23:23;;;;;;;1.80;1.20;;;;;;;9.86;100.00;98472.81;5080600;28;45495;-94
2021/05/18 00:25:50;;;;;;;5.55;1.45;;;;;;;9.70;100.00;98459.31;5078754;28;47310;-94
2021/05/18 00:28:15;;;;;;;4.43;1.08;;;;;;;9.77;100.00;98455.94;5081942;28;45360;-92
2021/05/18 00:30:41;;;;;;;3.13;1.45;;;;;;;9.95;100.00;98462.28;5074687;28;45240;-92
2021/05/18 00:33:13;;;;;;;5.68;1.33;;;;;;;9.90;100.00;98471.53;5083165;28;45517;-92
2021/05/18 00:35:40;;;;;;;2.53;1.10;;;;;;;9.64;100.00;98476.66;5083068;28;46672;-95
2021/05/18 00:38:31;;;;;;;2.67;1.20;;;;;;;9.57;100.00;98480.84;5093664;27;45258;-94
2021/05/18 00:40:57;;;;;;;7.35;1.27;;;;;;;9.52;100.00;98486.63;5098259;27;45240;-93
2021/05/18 00:43:22;;;;;;;3.13;1.38;;;;;;;9.51;100.00;98490.25;5092455;28;45786;-92
2021/05/18 00:45:50;;;;;;;2.05;1.30;;;;;;;9.54;100.00;98489.97;5086285;28;46606;-91
2021/05/18 00:48:18;;;;;;;2.67;1.45;;;;;;;9.69;100.00;98492.97;5091801;28;45230;-91
2021/05/18 00:50:47;;;;;;;5.05;1.65;;;;;;;9.62;100.00;98498.03;5094198;28;44611;-91
2021/05/18 00:53:15;;;;;;;2.80;1.75;;;;;;;9.78;100.00;98501.91;5098451;28;45615;-91
2021/05/18 00:55:42;;;;;;;3.75;1.58;;;;;;;9.75;100.00;98502.19;5101087;28;47146;-88
2021/05/18 00:58:32;;;;;;;4.68;1.45;;;;;;;9.66;100.00;98495.09;5085456;28;45304;-89
2021/05/18 01:01:04;;;;;;;3.75;1.40;;;;;;;9.49;100.00;98486.91;5101151;27;45443;-89
2021/05/18 01:03:31;;;;;;;3.20;1.48;;;;;;;9.56;100.00;98479.19;5084250;28;45481;-89
2021/05/18 01:08:42;;;;;;;2.35;1.20;;;;;;;9.80;100.00;98481.34;5091021;28;45250;-93
2021/05/18 01:11:09;;;;;;;2.80;1.17;;;;;;;9.91;100.00;98485.66;5094935;28;45342;-93
2021/05/18 01:13:36;;;;;;;3.08;1.33;;;;;;;9.85;100.00;98492.38;5104565;27;45262;-92
2021/05/18 01:16:05;;;;;;;3.00;0.95;;;;;;;9.77;100.00;98486.97;5087355;28;47698;-91
2021/05/18 01:18:38;;;;;;;2.55;1.00;;;;;;;9.81;100.00;98484.88;5088314;28;44841;-91
2021/05/18 01:21:05;;;;;;;4.30;1.50;;;;;;;9.81;100.00;98475.06;5081720;27;45269;-90
2021/05/18 01:23:31;;;;;;;3.85;1.42;;;;;;;9.81;100.00;98472.41;5075493;28;45515;-89
2021/05/18 01:25:56;;;;;;;2.72;1.17;;;;;;;9.93;100.00;98465.09;5096895;27;46939;-90
2021/05/18 01:28:23;;;;;;;3.95;1.50;;;;;;;10.07;100.00;98451.31;5083600;28;45323;-90
2021/05/18 01:30:50;;;;;;;2.55;1.55;;;;;;;10.11;100.00;98453.69;5077550;28;45339;-90
2021/05/18 01:33:16;;;;;;;2.45;1.25;;;;;;;9.98;100.00;98446.91;5084496;28;45279;-90
2021/05/18 01:35:42;;;;;;;2.67;1.30;;;;;;;9.91;100.00;98443.16;5090375;28;46963;-90
2021/05/18 01:38:11;;;;;;;2.88;1.50;;;;;;;9.88;100.00;98424.84;5090276;28;45198;-90
2021/05/18 01:43:15;;;;;;;2.70;1.42;;;;;;;9.78;100.00;98428.41;5094419;27;45379;-95
2021/05/18 01:45:43;;;;;;;4.53;1.50;;;;;;;9.49;100.00;98433.81;5099893;28;47070;-92
2021/05/18 01:48:13;;;;;;;2.17;1.40;;;;;;;9.61;100.00;98443.28;5090849;27;45271;-91
2021/05/18 01:50:42;;;;;;;2.22;1.40;;;;;;;9.55;100.00;98435.88;5080946;28;45322;-90
2021/05/18 01:53:09;;;;;;;4.88;1.95;;;;;;;9.61;100.00;98447.72;5081384;27;45513;-91
2021/05/18 01:58:01;;;;;;;3.28;1.40;;;;;;;9.74;100.00;98452.72;5080207;27;45265;-88
2021/05/18 02:00:30;;;;;;;3.22;1.40;;;;;;;9.67;100.00;98446.31;5079223;28;45347;-90
2021/05/18 02:02:57;;;;;;;3.38;1.40;;;;;;;9.59;100.00;98439.06;5078008;28;45564;-89
2021/05/18 02:05:27;;;;;;;4.70;1.48;;;;;;;9.66;100.00;98429.53;5077511;28;47459;-86
2021/05/18 02:07:56;;;;;;;2.38;1.50;;;;;;;9.41;100.00;98423.09;5075079;28;45375;-88
2021/05/18 02:10:22;;;;;;;2.67;1.15;;;;;;;9.61;100.00;98427.34;5075995;28;45256;-86
2021/05/18 02:12:48;;;;;;;1.75;1.10;;;;;;;9.62;100.00;98434.31;5068504;28;45215;-86
2021/05/18 02:15:39;;;;;;;2.53;1.13;;;;;;;9.59;100.00;98424.00;5074655;28;47858;-87
2021/05/18 02:26:34;;;;;;;2.75;1.00;;;;;;;9.37;100.00;98477.44;5078447;28;45243;-86
2021/05/18 02:28:59;;;;;;;1.10;0.85;;;;;;;9.25;100.00;98468.78;5072156;28;45547;-85
2021/05/18 02:31:25;;;;;;;1.38;0.70;;;;;;;9.11;100.00;98475.34;5074507;28;45277;-86
2021/05/18 02:33:51;;;;;;;2.13;0.88;;;;;;;9.04;100.00;98464.47;5078712;27;45336;-86
2021/05/18 02:36:18;;;;;;;4.18;0.95;;;;;;;9.01;100.00;98460.28;5079021;28;45357;-87
2021/05/18 02:38:43;;;;;;;2.65;0.82;;;;;;;9.03;100.00;98438.94;5079315;27;45345;-86
2021/05/18 02:41:10;;;;;;;1.45;0.73;;;;;;;8.97;100.00;98444.81;5079175;28;45420;-85
2021/05/18 02:43:49;;;;;;;2.45;0.90;;;;;;;9.01;100.00;98447.03;5077538;27;45225;-86
2021/05/18 02:51:26;;;;;;;4.10;0.90;;;;;;;8.97;100.00;98456.25;5066398;28;45333;-85
2021/05/18 02:53:52;;;;;;;2.10;0.50;;;;;;;8.86;100.00;98449.28;5079032;27;45336;-85
2021/05/18 02:58:53;;;;;;;4.55;0.88;;;;;;;8.74;100.00;98448.56;5078752;27;45335;-84
2021/05/18 03:01:18;;;;;;;2.33;0.90;;;;;;;8.98;100.00;98455.25;5078796;27;45323;-84
2021/05/18 03:03:44;;;;;;;2.95;0.98;;;;;;;8.82;100.00;98457.66;5078034;27;45656;-85
2021/05/18 03:06:09;;;;;;;4.20;0.93;;;;;;;8.99;100.00;98470.19;5078893;27;45293;-86
2021/05/18 03:08:37;;;;;;;1.38;0.80;;;;;;;8.93;100.00;98456.69;5077160;28;45516;-85
2021/05/18 03:11:03;;;;;;;5.18;0.90;;;;;;;8.75;100.00;98458.22;5078830;28;45281;-85
2021/05/18 03:13:28;;;;;;;2.67;0.90;;;;;;;8.63;100.00;98447.88;5078233;27;45423;-86
2021/05/18 03:15:54;;;;;;;2.33;0.60;;;;;;;8.54;100.00;98442.41;5078659;27;45493;-86
2021/05/18 03:18:19;;;;;;;0.85;0.50;;;;;;;8.52;100.00;98439.06;5078146;27;45480;-86
2021/05/18 03:20:44;;;;;;;2.58;0.70;;;;;;;8.47;100.00;98431.53;5077438;28;45268;-86
2021/05/18 03:23:10;;;;;;;2.17;0.60;;;;;;;8.55;100.00;98419.41;5077371;28;45257;-87
2021/05/18 03:25:35;;;;;;;1.33;0.80;;;;;;;8.51;100.00;98407.41;5078372;27;45462;-86
2021/05/18 03:28:01;;;;;;;2.88;0.60;;;;;;;8.56;100.00;98402.53;5077644;27;45473;-85
2021/05/18 03:35:39;;;;;;;1.55;0.68;;;;;;;8.61;100.00;98400.31;5078638;28;45829;-85
2021/05/18 03:38:24;;;;;;;2.17;0.90;;;;;;;8.61;100.00;98402.94;5076845;28;45365;-86
2021/05/18 03:40:53;;;;;;;2.00;0.82;;;;;;;8.48;100.00;98416.44;5077895;27;45322;-86
2021/05/18 03:43:38;;;;;;;2.85;1.00;;;;;;;8.31;100.00;98415.28;5067206;28;45503;-85
2021/05/18 03:52:17;;;;;;;5.88;0.98;;;;;;;8.22;100.00;98416.97;5078293;28;45300;-85
2021/05/18 04:13:20;;;;;;;3.92;1.02;;;;;;;7.94;100.00;98377.03;5077687;27;45319;-85
2021/05/18 04:18:37;;;;;;;2.40;0.80;;;;;;;7.87;100.00;98378.53;5077333;28;45751;-85
2021/05/18 04:21:10;;;;;;;3.53;0.75;;;;;;;7.91;100.00;98365.88;5076388;28;45616;-86
2021/05/18 05:01:12;;;;;;;2.97;1.85;;;;;;;8.21;100.00;98417.09;5080617;28;45772;-84
2021/05/18 05:16:28;;;;;;;2.22;1.00;;;;;;;8.07;100.00;98431.59;5079056;28;45311;-85
2021/05/18 05:18:54;;;;;;;3.15;1.20;;;;;;;8.21;100.00;98430.34;5078608;27;45459;-87
2021/05/18 05:21:22;;;;;;;1.85;0.80;;;;;;;8.25;100.00;98439.69;5079902;28;45491;-87
2021/05/18 05:23:49;;;;;;;3.47;1.20;;;;;;;8.35;100.00;98435.25;5079780;28;45286;-85
2021/05/18 05:26:14;;;;;;;5.82;1.50;;;;;;;8.57;100.00;98441.31;5077184;28;45450;-84
2021/05/18 05:28:40;;;;;;;7.10;2.90;;;;;;;8.88;100.00;98427.91;5072821;27;45511;-81
2021/05/18 05:31:05;;;;;;;6.90;3.58;;;;;;;9.12;100.00;98429.28;5077111;28;46022;-81
2021/05/18 05:33:31;;;;;;;3.33;1.63;;;;;;;9.12;100.00;98442.53;5079137;28;45385;-82
2021/05/18 05:35:56;;;;;;;3.97;1.80;;;;;;;9.22;100.00;98440.69;5078327;27;45451;-81
2021/05/18 05:38:23;;;;;;;5.05;2.17;;;;;;;9.29;100.00;98433.88;5077070;28;45521;-82
2021/05/18 05:40:49;;;;;;;4.78;2.20;;;;;;;9.08;100.00;98439.34;5078931;27;45498;-81
2021/05/18 05:43:14;;;;;;;4.55;1.88;;;;;;;8.68;100.00;98429.72;5078947;27;46290;-81
2021/05/18 05:45:39;;;;;;;3.10;1.70;;;;;;;8.66;100.00;98427.22;5079607;27;45432;-81
2021/05/18 05:48:05;;;;;;;3.38;1.67;;;;;;;8.77;100.00;98423.56;5079010;27;45559;-81
2021/05/18 05:50:31;;;;;;;4.35;1.65;;;;;;;8.67;100.00;98426.25;5078278;28;46603;-83
2021/05/18 05:52:56;;;;;;;4.90;1.92;;;;;;;8.71;100.00;98418.84;5078996;27;45427;-81
2021/05/18 05:55:22;;;;;;;6.22;1.50;;;;;;;8.98;100.00;98417.31;5079382;28;45351;-82
2021/05/18 05:57:47;;;;;;;1.50;1.10;;;;;;;8.93;100.00;98420.38;5079448;27;45224;-82
2021/05/18 06:00:13;;;;;;;3.67;1.00;;;;;;;9.10;100.00;98420.63;5079438;27;46113;-81
2021/05/18 06:02:39;;;;;;;3.33;1.00;;;;;;;9.10;100.00;98412.66;5078384;27;45438;-81
2021/05/18 06:05:06;;;;;;;2.65;0.90;;;;;;;9.09;100.00;98405.69;5076394;28;45585;-79
2021/05/18 06:07:32;;;;;;;3.72;1.00;;;;;;;9.22;100.00;98405.38;5077817;28;45610;-81
2021/05/18 06:10:32;;;;;;;4.10;1.10;;;;;;;9.04;100.00;98396.34;5078542;28;46085;-81
2021/05/18 06:47:40;;;;;;;2.70;1.20;;;;;;;9.96;100.00;98442.69;5067262;28;45344;-83
2021/05/18 06:52:44;;;;;;;3.97;1.10;;;;;;;10.11;100.00;98459.81;5078332;27;45348;-84
2021/05/18 06:55:24;;;;;;;3.22;1.40;;;;;;;10.22;100.00;98467.63;5073946;27;45454;-84
2021/05/18 06:57:54;;;;;;;4.75;1.90;;;;;;;10.49;100.00;98465.94;5077729;28;45448;-84
2021/05/18 07:00:20;;;;;;;3.50;1.92;;;;;;;10.52;100.00;98467.44;5078078;28;45386;-83
2021/05/18 07:02:49;;;;;;;5.80;2.28;;;;;;;10.65;100.00;98478.56;5074829;28;45769;-84
2021/05/18 07:05:27;;;;;;;4.97;2.33;;;;;;;11.13;100.00;98465.00;5072806;27;45606;-84
2021/05/18 07:08:03;;;;;;;3.95;2.40;;;;;;;11.44;100.00;98458.41;5076733;28;45446;-85
2021/05/18 07:10:28;;;;;;;4.53;2.10;;;;;;;11.57;100.00;98455.34;5074014;28;46340;-85
2021/05/18 07:12:54;;;;;;;4.13;2.55;;;;;;;11.86;100.00;98451.50;5076825;27;46226;-85
2021/05/18 07:15:19;;;;;;;4.03;2.10;;;;;;;12.17;99.72;98451.81;5075918;28;45364;-85
2021/05/18 07:17:44;;;;;;;3.95;2.15;;;;;;;12.02;98.58;98448.94;5073002;27;45456;-85
2021/05/18 07:20:10;;;;;;;3.80;2.08;;;;;;;12.16;98.67;98439.50;5073468;28;45349;-85
2021/05/18 07:22:36;;;;;;;2.63;1.38;;;;;;;12.19;91.08;98428.50;5074438;27;46348;-88
2021/05/18 07:25:02;;;;;;;2.70;1.70;;;;;;;13.08;91.13;98427.09;5075333;28;45430;-86
2021/05/18 07:27:28;;;;;;;2.63;1.40;;;;;;;13.49;87.57;98431.59;5074912;28;45525;-86
2021/05/18 07:29:53;;;;;;;3.35;1.70;;;;;;;14.44;81.52;98437.88;5074439;27;45470;-87
2021/05/18 07:32:19;;;;;;;3.00;1.60;;;;;;;15.91;75.03;98430.66;5075442;28;45337;-89
2021/05/18 07:34:44;;;;;;;2.08;1.58;;;;;;;18.56;66.64;98415.38;5076299;27;45352;-89
2021/05/18 07:37:09;;;;;;;2.80;1.60;;;;;;;17.95;67.39;98411.59;5077784;27;45341;-88
2021/05/18 07:39:35;;;;;;;2.95;1.40;;;;;;;19.65;57.62;98414.38;5069058;27;45543;-88
2021/05/18 07:42:00;;;;;;;2.75;1.30;;;;;;;19.59;55.04;98412.50;5075603;27;45427;-89
2021/05/18 07:44:26;;;;;;;3.38;1.30;;;;;;;19.70;51.91;98406.47;5069200;28;45790;-87
2021/05/18 07:46:51;;;;;;;3.05;1.25;;;;;;;19.40;53.21;98398.88;5075739;28;45397;-88
2021/05/18 07:59:34;;;;;;;3.42;1.17;;;;;;;24.94;40.89;98353.78;5076391;27;45419;-86
2021/05/18 08:02:22;;;;;;;1.88;1.00;;;;;;;25.07;38.95;98350.72;5066075;28;46798;-87
2021/05/18 08:07:34;;;;;;;2.55;1.30;;;;;;;26.31;35.16;98324.28;5076519;28;45184;-87
2021/05/18 08:10:12;;;;;;;2.38;1.20;;;;;;;28.18;33.40;98310.75;5073244;28;45651;-88
2021/05/18 08:12:38;;;;;;;2.42;1.10;;;;;;;27.01;34.70;98297.09;5071091;28;46188;-85
2021/05/18 08:15:33;;;;;;;2.17;1.02;;;;;;;26.64;34.33;98303.31;5074825;28;45456;-87
2021/05/18 10:36:29;;;;;;;2.80;0.73;;;;;;;22.13;44.41;98135.66;5078566;28;46067;-78
2021/05/18 10:39:22;;;;;;;3.15;0.90;;;;;;;21.55;41.43;98127.16;5078091;27;45462;-77
2021/05/18 10:41:49;;;;;;;2.67;0.70;;;;;;;22.01;41.25;98126.72;5075199;28;45344;-77
2021/05/18 10:44:15;;;;;;;3.28;0.82;;;;;;;22.21;41.15;98125.53;5077752;27;45456;-78
2021/05/18 10:46:58;;;;;;;2.38;0.65;;;;;;;22.07;42.95;98141.16;5059387;28;48427;-77
2021/05/18 10:49:35;;;;;;;3.60;0.60;;;;;;;22.20;39.91;98134.72;5077468;27;45408;-77
2021/05/18 10:52:08;;;;;;;2.50;0.80;;;;;;;22.27;38.94;98133.56;5066320;28;45443;-76
2021/05/18 10:54:39;;;;;;;4.47;0.70;;;;;;;21.85;37.68;98112.81;5066666;28;45495;-77
2021/05/18 10:57:07;;;;;;;2.40;0.68;;;;;;;21.68;40.31;98115.34;5078342;28;45350;-78
2021/05/18 11:00:11;;;;;;;2.08;0.70;;;;;;;21.92;44.42;98109.16;5077785;27;45489;-77
2021/05/18 11:02:38;;;;;;;4.20;0.80;;;;;;;20.46;38.84;98125.13;5074944;27;45524;-78
2021/05/18 11:05:10;;;;;;;3.40;0.98;;;;;;;21.79;42.39;98111.03;5078011;27;45364;-77
2021/05/18 11:07:36;;;;;;;4.07;0.80;;;;;;;22.05;38.71;98116.22;5077327;27;46024;-77
2021/05/18 11:10:06;;;;;;;7.53;0.85;;;;;;;21.56;42.00;98104.44;5077080;27;45535;-77
2021/05/18 11:12:32;;;;;;;2.47;0.77;;;;;;;22.01;37.68;98118.59;5077503;27;45338;-77
2021/05/18 11:14:57;;;;;;;3.22;0.93;;;;;;;22.05;42.31;98106.22;5077358;27;45379;-77
2021/05/18 11:17:22;;;;;;;2.78;0.75;;;;;;;22.00;36.80;98100.69;5076289;27;45619;-77
2021/05/18 11:20:04;;;;;;;1.95;0.70;;;;;;;21.52;35.81;98081.63;5077572;27;45300;-77
2021/05/18 11:26:07;;;;;;;2.78;0.70;;;;;;;20.74;37.54;98084.09;5076691;28;46521;-77
2021/05/18 11:28:40;;;;;;;3.55;0.70;;;;;;;20.49;39.20;98085.00;5077447;28;45485;-77
2021/05/18 11:31:21;;;;;;;2.22;0.88;;;;;;;20.19;39.01;98084.91;5077305;27;45428;-78
2021/05/18 11:33:51;;;;;;;3.03;0.90;;;;;;;20.70;42.66;98078.31;5077310;27;45376;-77
2021/05/18 11:36:18;;;;;;;;;;;;;;;20.79;41.54;98069.97;5078087;27;45350;-77
2021/05/18 11:38:51;;;;;;;2.05;0.90;;;;;;;20.62;40.96;98062.41;5077272;27;46309;-77
2021/05/18 11:41:21;;;;;;;4.93;1.23;;;;;;;20.41;39.43;98063.72;5077201;27;45351;-78
2021/05/18 11:43:51;;;;;;;4.13;0.70;;;;;;;20.16;36.95;98058.34;5071914;27;45310;-78
2021/05/18 11:46:17;;;;;;;2.00;0.88;;;;;;;19.36;38.05;98036.38;5076769;27;45858;-77
2021/05/18 11:49:13;;;;;;;4.30;0.82;;;;;;;20.35;41.25;98038.41;5077300;27;45458;-77
2021/05/18 11:51:43;;;;;;;3.25;0.60;;;;;;;20.32;39.88;98019.97;5069068;28;45466;-77
2021/05/18 11:54:10;;;;;;;4.55;0.95;;;;;;;20.56;45.80;98004.75;5077612;27;45329;-77
2021/05/18 11:56:37;;;;;;;4.15;0.70;;;;;;;20.31;41.94;97994.03;5077062;28;45509;-77
2021/05/18 11:59:10;;;;;;;2.53;0.73;;;;;;;20.22;43.97;97987.28;5076479;28;46270;-78
2021/05/18 12:01:54;;;;;;;2.60;0.60;;;;;;;19.98;43.90;97977.16;5075771;27;45317;-77
2021/05/18 12:04:22;;;;;;;3.63;0.60;;;;;;;20.26;43.55;97969.59;5075069;28;45412;-78
2021/05/18 12:07:12;;;;;;;1.80;0.68;;;;;;;20.87;41.38;97975.06;5077379;27;45410;-78
2021/05/18 12:09:43;;;;;;;2.07;0.60;;;;;;;20.45;37.05;97974.97;5066078;28;45578;-77
2021/05/18 12:12:18;;;;;;;2.47;0.70;;;;;;;20.79;36.04;97962.69;5072310;28;45268;-78
2021/05/18 12:14:45;;;;;;;2.55;0.57;;;;;;;20.83;37.62;97953.06;5077351;27;45374;-78
2021/05/18 12:17:11;;;;;;;3.40;0.73;;;;;;;20.74;34.50;97940.09;5076437;28;45675;-78
2021/05/18 12:19:40;;;;;;;2.67;0.70;;;;;;;19.97;39.46;97926.13;5076764;27;45510;-77
2021/05/18 12:22:06;;;;;;;3.15;0.57;;;;;;;20.12;38.79;97923.84;5074823;27;45965;-78
2021/05/18 12:24:38;;;;;;;3.30;0.77;;;;;;;19.98;37.07;97901.59;5073314;27;45603;-78
2021/05/18 12:27:05;;;;;;;3.80;0.80;;;;;;;20.30;37.25;97905.97;5075658;27;45542;-77
2021/05/18 12:29:49;;;;;;;2.47;0.50;;;;;;;20.50;38.92;97900.31;5076274;27;45494;-78
2021/05/18 12:32:21;;;;;;;2.40;0.63;;;;;;;20.67;37.39;97891.56;5064158;28;45372;-77
2021/05/18 12:34:58;;;;;;;2.55;0.82;;;;;;;19.79;37.10;97879.16;5074103;27;45368;-78
2021/05/18 12:37:44;;;;;;;4.30;0.77;;;;;;;20.25;38.83;97885.06;5074685;27;45567;-77
2021/05/18 12:40:15;;;;;;;3.53;0.82;;;;;;;19.87;37.35;97894.22;5074007;28;46621;-77
2021/05/18 12:42:42;;;;;;;1.63;0.65;;;;;;;20.18;38.96;97907.81;5075592;27;45520;-77
2021/05/18 12:45:11;;;;;;;2.78;0.65;;;;;;;20.16;36.56;97916.13;5076406;27;45358;-77
2021/05/18 12:47:39;;;;;;;4.65;1.10;;;;;;;20.21;44.45;97928.94;5071541;28;45495;-77
2021/05/18 12:50:16;;;;;;;3.17;0.90;;;;;;;19.42;38.99;97924.97;5075211;28;46036;-78
2021/05/18 12:52:41;;;;;;;1.88;0.60;;;;;;;19.43;40.71;97921.22;5076536;28;45480;-78
2021/05/18 12:55:13;;;;;;;2.88;0.60;;;;;;;19.26;41.85;97912.84;5075000;27;45492;-78
2021/05/18 12:57:55;;;;;;;3.90;1.35;;;;;;;19.36;41.67;97910.47;5074244;28;45614;-78
2021/05/18 13:00:33;;;;;;;3.88;1.52;;;;;;;18.88;45.09;97919.94;5064765;28;48097;-77
2021/05/18 13:03:15;;;;;;;4.78;1.02;;;;;;;18.53;42.54;97941.91;5071163;28;45431;-78
2021/05/18 13:05:42;;;;;;;3.53;1.10;;;;;;;18.35;46.62;97929.16;5076557;28;45505;-77
2021/05/18 13:08:13;;;;;;;3.53;1.08;;;;;;;18.46;46.38;97906.13;5075026;27;45570;-77
2021/05/18 13:13:23;;;;;;;6.53;1.20;;;;;;;18.97;46.07;97917.84;5077359;27;45468;-78
2021/05/18 13:15:49;;;;;;;4.25;0.90;;;;;;;18.42;45.09;97924.56;5093403;27;45525;-77
2021/05/18 13:18:16;;;;;;;3.65;1.15;;;;;;;18.27;46.16;97921.31;5077603;27;45650;-77
2021/05/18 13:20:50;;;;;;;3.40;0.98;;;;;;;17.92;47.39;97917.06;5078899;27;45457;-78
2021/05/18 13:23:24;;;;;;;6.82;1.35;;;;;;;17.65;49.58;97920.66;5076776;27;45415;-77
2021/05/18 13:28:35;;;;;;;4.32;1.02;;;;;;;17.20;48.29;97952.75;5076664;28;45426;-77
2021/05/18 13:31:01;;;;;;;6.25;1.23;;;;;;;17.36;49.95;97978.38;5077801;27;45415;-78
2021/05/18 13:33:26;;;;;;;5.88;1.40;;;;;;;17.10;50.35;98011.44;5078459;28;45596;-77
2021/05/18 13:35:52;;;;;;;6.93;1.23;;;;;;;16.92;56.87;98019.00;5078826;27;45194;-77
2021/05/18 13:38:17;;;;;;;6.63;1.00;;;;;;;16.81;51.79;98013.41;5077449;27;45458;-78
2021/05/18 13:40:43;;;;;;;4.53;1.02;;;;;;;16.68;54.62;97998.06;5077360;28;47724;-78
2021/05/18 13:43:08;;;;;;;3.65;1.15;;;;;;;16.65;52.89;97996.59;5078727;28;45352;-78
2021/05/18 13:45:34;;;;;;;7.20;1.58;;;;;;;16.85;51.30;97993.16;5079083;28;45369;-78
2021/05/18 13:47:59;;;;;;;4.40;1.02;;;;;;;17.02;50.87;97982.88;5076833;28;45725;-77
2021/05/18 13:50:26;;;;;;;5.38;1.45;;;;;;;17.04;51.85;97994.25;5078744;27;45478;-78
2021/05/18 13:52:53;;;;;;;10.32;4.60;;;;;;;17.08;52.17;97978.56;5078674;28;45493;-77
2021/05/18 13:55:18;;;;;;;5.53;1.40;;;;;;;17.18;50.58;97965.56;5077964;27;45538;-78
2021/05/18 13:57:44;;;;;;;4.75;1.50;;;;;;;17.68;49.09;97958.94;5078672;28;45435;-78
2021/05/18 14:00:13;;;;;;;5.85;1.20;;;;;;;17.91;48.60;97953.91;5076160;28;47823;-77
2021/05/18 14:02:43;;;;;;;6.78;1.30;;;;;;;18.31;48.26;97957.53;5078220;28;45496;-78
2021/05/18 14:05:13;;;;;;;4.30;1.20;;;;;;;18.38;48.50;97967.25;5078968;27;45296;-78
2021/05/18 14:10:38;;;;;;;4.53;1.13;;;;;;;18.10;50.89;97975.63;5076577;28;45653;-78
2021/05/18 14:13:04;;;;;;;2.03;0.95;;;;;;;17.66;48.79;97972.56;5078592;27;45771;-78
2021/05/18 14:15:29;;;;;;;4.93;1.00;;;;;;;17.77;51.86;97969.25;5078610;28;45324;-77
2021/05/18 14:17:54;;;;;;;4.80;0.90;;;;;;;17.01;50.56;97971.31;5076355;27;45404;-78
2021/05/18 14:20:20;;;;;;;5.70;1.25;;;;;;;16.84;53.23;97965.47;5076414;28;46060;-77
2021/05/18 14:22:45;;;;;;;7.85;1.23;;;;;;;16.93;53.51;97936.59;5078800;27;45277;-77
2021/05/18 14:25:11;;;;;;;7.75;1.30;;;;;;;16.86;52.26;97930.38;5077688;27;45566;-77
2021/05/18 14:27:39;;;;;;;5.43;1.30;;;;;;;16.77;51.20;97922.50;5070548;27;45617;-77
2021/05/18 14:30:09;;;;;;;4.32;1.10;;;;;;;16.49;51.23;97922.66;5067875;28;46116;-77
2021/05/18 14:32:36;;;;;;;3.50;0.98;;;;;;;16.33;51.91;97916.59;5078326;28;45389;-77
2021/05/18 14:35:05;;;;;;;6.10;1.17;;;;;;;16.41;52.80;97917.47;5078407;27;45449;-78
2021/05/18 14:37:30;;;;;;;4.50;1.55;;;;;;;16.46;56.18;97920.38;5078660;28;45510;-78
2021/05/18 14:40:06;;;;;;;4.50;1.35;;;;;;;16.58;60.23;97934.00;5077395;28;45357;-77
2021/05/18 14:45:19;;;;;;;6.25;1.38;;;;;;;16.01;57.09;97966.41;5077755;28;45286;-78
2021/05/18 14:55:53;;;;;;;4.45;1.08;;;;;;;15.07;66.46;98019.25;5078498;27;45274;-78
2021/05/18 14:58:18;;;;;;;5.00;1.20;;;;;;;14.92;71.60;98046.88;5076874;27;45403;-78
2021/05/18 15:00:44;;;;;;;5.35;1.05;;;;;;;14.91;72.97;98063.97;5078284;27;45875;-77
2021/05/18 15:03:10;;;;;;;3.70;1.30;;;;;;;15.04;75.65;98082.03;5077912;27;45309;-78
2021/05/18 15:05:39;;;;;;;2.38;1.08;;;;;;;15.23;65.28;98093.16;5078160;28;45486;-77
2021/05/18 15:08:06;;;;;;;2.33;0.80;;;;;;;14.88;69.11;98097.31;5078270;27;45443;-78
2021/05/18 15:10:33;;;;;;;4.10;1.00;;;;;;;14.68;72.75;98096.19;5077939;27;45916;-77
2021/05/18 15:12:59;;;;;;;6.32;1.15;;;;;;;14.18;76.68;98106.63;5076451;27;45459;-75
2021/05/18 15:15:26;;;;;;;6.35;1.65;;;;;;;14.11;85.29;98110.00;5077400;27;45515;-76
2021/05/18 15:17:53;;;;;;;4.38;1.40;;;;;;;13.71;93.71;98104.88;5077295;27;45549;-76
2021/05/18 15:20:18;;;;;;;5.82;1.13;;;;;;;13.32;83.53;98097.75;5077050;27;45747;-77
2021/05/18 15:22:44;;;;;;;2.10;0.90;;;;;;;13.19;85.12;98084.97;5071912;27;45570;-79
2021/05/18 15:25:10;;;;;;;3.88;1.30;;;;;;;13.42;91.11;98095.72;5076830;27;45458;-77
2021/05/18 15:27:36;;;;;;;6.65;1.40;;;;;;;13.17;100.00;98094.19;5074668;28;45503;-78
2021/05/18 15:30:05;;;;;;;4.72;1.15;;;;;;;12.73;94.75;98091.06;5063560;27;45468;-77
2021/05/18 15:32:30;;;;;;;3.35;1.17;;;;;;;12.73;100.00;98109.75;5076228;27;45421;-77
2021/05/18 15:34:56;;;;;;;16.80;2.33;;;;;;;12.76;100.00;98124.59;5077116;27;45479;-77
2021/05/18 15:37:22;;;;;;;9.30;1.65;;;;;;;12.26;100.00;98127.41;5072036;28;45992;-77
2021/05/18 15:39:47;;;;;;;6.55;1.40;;;;;;;12.08;100.00;98119.63;5073713;28;46692;-78
2021/05/18 15:42:13;;;;;;;6.53;1.63;;;;;;;12.04;100.00;98107.63;5075424;27;45405;-79
2021/05/18 15:44:38;;;;;;;3.95;1.00;;;;;;;11.90;100.00;98109.91;5075635;28;46133;-76
2021/05/18 15:47:04;;;;;;;14.45;2.03;;;;;;;12.09;100.00;98114.09;5072559;27;45497;-79
2021/05/18 15:49:31;;;;;;;10.00;1.90;;;;;;;12.04;100.00;98123.63;5072128;27;46344;-79
2021/05/18 15:51:57;;;;;;;7.13;1.30;;;;;;;11.76;100.00;98130.09;5074504;27;45405;-78
2021/05/18 15:54:23;;;;;;;49.35;4.10;;;;;;;11.92;100.00;98126.56;5074757;27;45458;-78
2021/05/18 15:56:48;;;;;;;11.18;2.30;;;;;;;12.00;100.00;98125.78;5075807;27;45533;-78
2021/05/18 15:59:14;;;;;;;9.27;1.90;;;;;;;12.17;100.00;98126.59;5075496;27;46474;-78
2021/05/18 16:01:40;;;;;;;170.10;14.65;;;;;;;12.04;100.00;98123.63;5075320;27;45309;-78
2021/05/18 16:04:07;;;;;;;3.65;1.20;;;;;;;12.11;100.00;98112.09;5069735;27;45458;-77
2021/05/18 16:06:33;;;;;;;5.60;1.40;;;;;;;11.97;100.00;98121.59;5071646;27;45347;-78
2021/05/18 16:08:59;;;;;;;7.05;1.40;;;;;;;11.93;100.00;98128.28;5074938;27;45540;-78
2021/05/18 16:11:25;;;;;;;5.30;2.58;;;;;;;11.87;100.00;98142.22;5075002;28;45401;-78
2021/05/18 16:13:50;;;;;;;11.82;2.67;;;;;;;12.39;100.00;98165.06;5075417;28;45404;-78
2021/05/18 16:16:16;;;;;;;11.57;1.65;;;;;;;12.02;100.00;98169.09;5075426;27;45522;-77
2021/05/18 16:18:43;;;;;;;6.55;1.77;;;;;;;12.00;100.00;98180.91;5074421;27;45926;-79
2021/05/18 16:21:10;;;;;;;4.18;1.30;;;;;;;11.83;100.00;98189.72;5075672;27;45514;-78
2021/05/18 16:23:38;;;;;;;3.45;1.40;;;;;;;11.70;100.00;98188.50;5071138;28;45458;-78
2021/05/18 16:26:05;;;;;;;6.30;1.63;;;;;;;11.73;100.00;98156.22;5075495;27;46269;-77
2021/05/18 16:28:31;;;;;;;4.70;1.40;;;;;;;11.68;100.00;98127.44;5069995;28;47307;-78
2021/05/18 16:30:58;;;;;;;3.70;1.35;;;;;;;11.87;100.00;98109.44;5071061;28;46671;-77
2021/05/18 16:33:24;;;;;;;5.30;1.40;;;;;;;11.81;100.00;98102.94;5073597;28;45419;-78
2021/05/18 16:35:49;;;;;;;18.58;2.85;;;;;;;11.90;100.00;98088.59;5074163;28;45476;-77
2021/05/18 16:38:15;;;;;;;4.75;1.40;;;;;;;11.91;100.00;98082.28;5073883;28;45479;-77
2021/05/18 16:40:40;;;;;;;56.75;17.10;;;;;;;12.39;100.00;98100.22;5073632;28;45831;-78
2021/05/18 16:43:07;;;;;;;13.82;6.47;;;;;;;12.56;100.00;98109.00;5073695;28;45416;-78
2021/05/18 16:45:34;;;;;;;90.55;8.63;;;;;;;12.62;100.00;98128.81;5089103;27;45373;-78
2021/05/18 16:48:00;;;;;;;9.95;4.22;;;;;;;12.04;100.00;98107.63;5072613;28;45544;-78
2021/05/18 16:50:26;;;;;;;36.53;6.30;;;;;;;12.20;100.00;98107.59;5078421;27;45515;-78
2021/05/18 16:52:52;;;;;;;19.85;7.45;;;;;;;12.08;100.00;98116.94;5077743;27;45466;-79
2021/05/18 16:55:17;;;;;;;17.60;6.82;;;;;;;11.87;100.00;98115.59;5077022;28;45558;-79
2021/05/18 16:57:43;;;;;;;23.40;7.95;;;;;;;11.92;100.00;98118.56;5078568;28;45275;-79
2021/05/18 17:00:11;;;;;;;10.32;5.15;;;;;;;11.85;100.00;98130.91;5077593;28;45465;-79